sensor_id;sensor_type;location;lat;lon;timestamp;pressure;altitude;pressure_sealevel;temperature;humidity
13476;BME280;6810;63.824;20.288;2023-02-28T00:01:29;101810.72;;;5.49;100.00
13476;BME280;6810;63.824;20.288;2023-02-28T00:03:57;101820.31;;;5.56;100.00
13476;BME280;6810;63.824;20.288;2023-02-28T00:06:24;101829.09;;;5.57;100.00
13476;BME280;6810;63.824;20.288;2023-02-28T00:08:51;101833.59;;;5.53;100.00
13476;BME280;6810;63.824;20.288;2023-02-28T00:11:18;101838.84;;;5.55;100.00
13476;BME280;6810;63.824;20.288;2023-02-28T00:13:46;101818.72;;;5.46;100.00
13476;BME280;6810;63.824;20.288;2023-02-28T00:16:17;101831.78;;;5.54;100.00
13476;BME280;6810;63.824;20.288;2023-02-28T00:18:45;101824.78;;;5.53;100.00
13476;BME280;6810;63.824;20.288;2023-02-28T00:21:15;101832.72;;;5.53;100.00
13476;BME280;6810;63.824;20.288;2023-02-28T00:23:42;101831.81;;;5.52;100.00
13476;BME280;6810;63.824;20.288;2023-02-28T00:26:10;101827.44;;;5.51;100.00
13476;BME280;6810;63.824;20.288;2023-02-28T00:28:38;101822.16;;;5.51;100.00
13476;BME280;6810;63.824;20.288;2023-02-28T00:31:05;101828.41;;;5.49;100.00
13476;BME280;6810;63.824;20.288;2023-02-28T00:33:32;101779.59;;;5.20;100.00
13476;BME280;6810;63.824;20.288;2023-02-28T00:36:04;101819.56;;;5.48;100.00
13476;BME280;6810;63.824;20.288;2023-02-28T00:38:31;101824.00;;;5.46;100.00
13476;BME280;6810;63.824;20.288;2023-02-28T00:40:59;101825.81;;;5.44;100.00
13476;BME280;6810;63.824;20.288;2023-02-28T00:43:32;101793.53;;;5.28;100.00
13476;BME280;6810;63.824;20.288;2023-02-28T00:46:00;101835.56;;;5.42;100.00
13476;BME280;6810;63.824;20.288;2023-02-28T00:48:29;101845.28;;;5.40;100.00
13476;BME280;6810;63.824;20.288;2023-02-28T00:50:56;101844.41;;;5.39;100.00
13476;BME280;6810;63.824;20.288;2023-02-28T00:53:24;101847.97;;;5.38;100.00
13476;BME280;6810;63.824;20.288;2023-02-28T00:55:51;101840.19;;;5.31;100.00
13476;BME280;6810;63.824;20.288;2023-02-28T00:58:18;101853.28;;;5.37;100.00
13476;BME280;6810;63.824;20.288;2023-02-28T01:00:45;101852.47;;;5.32;100.00
13476;BME280;6810;63.824;20.288;2023-02-28T01:03:17;101863.88;;;5.35;100.00
13476;BME280;6810;63.824;20.288;2023-02-28T01:05:45;101811.56;;;5.07;100.00
13476;BME280;6810;63.824;20.288;2023-02-28T01:08:13;101870.09;;;5.33;100.00
13476;BME280;6810;63.824;20.288;2023-02-28T01:10:41;101804.66;;;4.98;100.00
13476;BME280;6810;63.824;20.288;2023-02-28T01:13:08;101857.00;;;5.27;100.00
13476;BME280;6810;63.824;20.288;2023-02-28T01:15:37;101822.25;;;5.01;100.00
13476;BME280;6810;63.824;20.288;2023-02-28T01:18:04;101855.34;;;5.20;100.00
13476;BME280;6810;63.824;20.288;2023-02-28T01:20:31;101866.78;;;5.22;100.00
13476;BME280;6810;63.824;20.288;2023-02-28T01:22:58;101876.53;;;5.18;100.00
13476;BME280;6810;63.824;20.288;2023-02-28T01:25:26;101866.09;;;5.11;100.00
13476;BME280;6810;63.824;20.288;2023-02-28T01:27:53;101855.53;;;5.11;100.00
13476;BME280;6810;63.824;20.288;2023-02-28T01:30:20;101881.00;;;5.15;100.00
13476;BME280;6810;63.824;20.288;2023-02-28T01:32:47;101883.69;;;5.13;100.00
13476;BME280;6810;63.824;20.288;2023-02-28T01:35:14;101871.38;;;5.11;100.00
13476;BME280;6810;63.824;20.288;2023-02-28T01:37:41;101864.56;;;4.98;100.00
13476;BME280;6810;63.824;20.288;2023-02-28T01:40:09;101867.94;;;5.06;100.00
13476;BME280;6810;63.824;20.288;2023-02-28T01:42:36;101880.28;;;5.07;100.00
13476;BME280;6810;63.824;20.288;2023-02-28T01:47:48;101889.09;;;5.04;100.00
13476;BME280;6810;63.824;20.288;2023-02-28T01:50:22;101904.09;;;5.04;100.00
13476;BME280;6810;63.824;20.288;2023-02-28T01:52:53;101908.50;;;5.03;100.00
13476;BME280;6810;63.824;20.288;2023-02-28T01:55:23;101910.28;;;5.01;100.00
13476;BME280;6810;63.824;20.288;2023-02-28T01:58:00;101915.56;;;5.01;100.00
13476;BME280;6810;63.824;20.288;2023-02-28T02:00:30;101924.41;;;5.00;100.00
13476;BME280;6810;63.824;20.288;2023-02-28T02:03:08;101916.50;;;4.99;100.00
13476;BME280;6810;63.824;20.288;2023-02-28T02:05:39;101930.59;;;4.99;100.00
13476;BME280;6810;63.824;20.288;2023-02-28T02:08:11;101920.06;;;4.98;100.00
13476;BME280;6810;63.824;20.288;2023-02-28T02:10:42;101912.13;;;4.98;100.00
13476;BME280;6810;63.824;20.288;2023-02-28T02:13:32;101917.38;;;4.99;100.00
13476;BME280;6810;63.824;20.288;2023-02-28T02:16:06;101919.16;;;4.99;100.00
13476;BME280;6810;63.824;20.288;2023-02-28T02:18:47;101918.25;;;4.98;100.00
13476;BME280;6810;63.824;20.288;2023-02-28T02:30:04;101932.34;;;4.99;100.00
13476;BME280;6810;63.824;20.288;2023-02-28T02:38:11;101938.50;;;5.01;100.00
13476;BME280;6810;63.824;20.288;2023-02-28T02:41:05;101935.00;;;4.99;100.00
13476;BME280;6810;63.824;20.288;2023-02-28T02:44:06;101935.88;;;4.99;100.00
13476;BME280;6810;63.824;20.288;2023-02-28T02:46:41;101918.25;;;5.00;100.00
13476;BME280;6810;63.824;20.288;2023-02-28T02:49:13;101918.25;;;5.00;100.00
13476;BME280;6810;63.824;20.288;2023-02-28T02:51:42;101917.56;;;4.89;100.00
13476;BME280;6810;63.824;20.288;2023-02-28T02:54:23;101935.06;;;4.94;100.00
13476;BME280;6810;63.824;20.288;2023-02-28T02:56:59;101935.03;;;4.97;100.00
13476;BME280;6810;63.824;20.288;2023-02-28T02:59:28;101925.50;;;4.87;100.00
13476;BME280;6810;63.824;20.288;2023-02-28T03:01:59;101943.06;;;4.90;100.00
13476;BME280;6810;63.824;20.288;2023-02-28T03:04:32;101951.81;;;4.95;100.00
13476;BME280;6810;63.824;20.288;2023-02-28T03:07:00;101952.66;;;4.95;100.00
13476;BME280;6810;63.824;20.288;2023-02-28T03:09:27;101957.94;;;4.95;100.00
13476;BME280;6810;63.824;20.288;2023-02-28T03:11:55;101950.19;;;4.85;100.00
13476;BME280;6810;63.824;20.288;2023-02-28T03:17:34;101980.00;;;4.93;100.00
13476;BME280;6810;63.824;20.288;2023-02-28T03:23:01;101978.28;;;4.92;100.00
13476;BME280;6810;63.824;20.288;2023-02-28T03:30:52;101955.41;;;4.88;100.00
13476;BME280;6810;63.824;20.288;2023-02-28T03:33:26;101958.97;;;4.87;100.00
13476;BME280;6810;63.824;20.288;2023-02-28T03:36:02;101954.63;;;4.84;100.00
13476;BME280;6810;63.824;20.288;2023-02-28T03:38:37;101953.72;;;4.84;100.00
13476;BME280;6810;63.824;20.288;2023-02-28T03:41:13;101944.09;;;4.81;100.00
13476;BME280;6810;63.824;20.288;2023-02-28T03:43:45;101954.63;;;4.83;100.00
13476;BME280;6810;63.824;20.288;2023-02-28T03:46:17;101944.19;;;4.74;100.00
13476;BME280;6810;63.824;20.288;2023-02-28T03:49:01;101969.63;;;4.81;100.00
13476;BME280;6810;63.824;20.288;2023-02-28T03:51:30;101976.66;;;4.80;100.00
13476;BME280;6810;63.824;20.288;2023-02-28T03:54:07;101976.72;;;4.77;100.00
13476;BME280;6810;63.824;20.288;2023-02-28T03:56:52;101989.94;;;4.76;100.00
13476;BME280;6810;63.824;20.288;2023-02-28T03:59:26;101966.16;;;4.76;100.00
13476;BME280;6810;63.824;20.288;2023-02-28T04:01:54;101984.66;;;4.76;100.00
13476;BME280;6810;63.824;20.288;2023-02-28T04:04:22;101946.28;;;4.54;100.00
13476;BME280;6810;63.824;20.288;2023-02-28T04:06:51;101973.22;;;4.74;100.00
13476;BME280;6810;63.824;20.288;2023-02-28T04:09:18;101981.19;;;4.71;100.00
13476;BME280;6810;63.824;20.288;2023-02-28T04:11:53;101992.66;;;4.70;100.00
13476;BME280;6810;63.824;20.288;2023-02-28T04:14:20;101972.69;;;4.52;100.00
13476;BME280;6810;63.824;20.288;2023-02-28T04:16:47;101989.19;;;4.66;100.00
13476;BME280;6810;63.824;20.288;2023-02-28T04:19:14;101981.31;;;4.63;100.00
13476;BME280;6810;63.824;20.288;2023-02-28T04:21:44;101980.47;;;4.63;100.00
13476;BME280;6810;63.824;20.288;2023-02-28T04:24:14;101962.88;;;4.60;100.00
13476;BME280;6810;63.824;20.288;2023-02-28T04:26:44;101960.25;;;4.59;100.00
13476;BME280;6810;63.824;20.288;2023-02-28T04:29:14;101958.53;;;4.56;100.00
13476;BME280;6810;63.824;20.288;2023-02-28T04:31:44;101953.31;;;4.52;100.00
13476;BME280;6810;63.824;20.288;2023-02-28T04:34:12;101958.59;;;4.52;100.00
13476;BME280;6810;63.824;20.288;2023-02-28T04:36:39;101954.25;;;4.49;100.00
13476;BME280;6810;63.824;20.288;2023-02-28T04:39:06;101955.16;;;4.47;100.00
13476;BME280;6810;63.824;20.288;2023-02-28T04:41:33;101976.28;;;4.45;100.00
13476;BME280;6810;63.824;20.288;2023-02-28T04:44:00;101969.25;;;4.46;100.00
13476;BME280;6810;63.824;20.288;2023-02-28T04:46:27;101956.94;;;4.43;100.00
13476;BME280;6810;63.824;20.288;2023-02-28T04:48:54;101964.00;;;4.43;100.00
13476;BME280;6810;63.824;20.288;2023-02-28T04:51:21;101969.34;;;4.40;100.00
13476;BME280;6810;63.824;20.288;2023-02-28T04:53:48;101981.66;;;4.39;100.00
13476;BME280;6810;63.824;20.288;2023-02-28T04:56:17;101963.34;;;4.26;100.00
13476;BME280;6810;63.824;20.288;2023-02-28T04:58:45;101987.09;;;4.27;100.00
13476;BME280;6810;63.824;20.288;2023-02-28T05:01:26;102006.38;;;4.32;100.00
13476;BME280;6810;63.824;20.288;2023-02-28T05:03:56;102005.53;;;4.29;100.00
13476;BME280;6810;63.824;20.288;2023-02-28T05:06:25;102011.72;;;4.26;100.00
13476;BME280;6810;63.824;20.288;2023-02-28T05:08:53;102014.47;;;4.19;100.00
13476;BME280;6810;63.824;20.288;2023-02-28T05:11:23;102031.13;;;4.21;100.00
13476;BME280;6810;63.824;20.288;2023-02-28T05:13:51;102038.19;;;4.22;100.00
13476;BME280;6810;63.824;20.288;2023-02-28T05:16:19;102046.97;;;4.19;100.00
13476;BME280;6810;63.824;20.288;2023-02-28T05:18:46;102057.56;;;4.16;100.00
13476;BME280;6810;63.824;20.288;2023-02-28T05:23:52;102039.16;;;4.12;100.00
13476;BME280;6810;63.824;20.288;2023-02-28T05:26:19;102047.06;;;4.12;100.00
13476;BME280;6810;63.824;20.288;2023-02-28T05:28:46;102041.84;;;4.06;100.00
13476;BME280;6810;63.824;20.288;2023-02-28T05:31:13;102050.59;;;4.11;100.00
13476;BME280;6810;63.824;20.288;2023-02-28T05:33:41;102055.00;;;4.09;100.00
13476;BME280;6810;63.824;20.288;2023-02-28T05:36:08;102053.31;;;4.05;100.00
13476;BME280;6810;63.824;20.288;2023-02-28T05:38:35;102065.59;;;4.07;100.00
13476;BME280;6810;63.824;20.288;2023-02-28T05:41:06;102042.00;;;3.92;100.00
13476;BME280;6810;63.824;20.288;2023-02-28T05:43:34;102078.81;;;4.04;100.00
13476;BME280;6810;63.824;20.288;2023-02-28T05:46:08;102077.06;;;4.03;100.00
13476;BME280;6810;63.824;20.288;2023-02-28T05:48:37;102077.09;;;4.02;100.00
13476;BME280;6810;63.824;20.288;2023-02-28T05:51:06;102081.47;;;4.01;100.00
13476;BME280;6810;63.824;20.288;2023-02-28T05:53:34;102083.22;;;4.01;100.00
13476;BME280;6810;63.824;20.288;2023-02-28T05:56:01;102078.91;;;3.94;100.00
13476;BME280;6810;63.824;20.288;2023-02-28T05:58:28;102083.25;;;3.98;100.00
13476;BME280;6810;63.824;20.288;2023-02-28T06:01:19;102067.50;;;3.92;100.00
13476;BME280;6810;63.824;20.288;2023-02-28T06:03:47;102074.53;;;3.94;100.00
13476;BME280;6810;63.824;20.288;2023-02-28T06:06:14;102101.75;;;3.93;100.00
13476;BME280;6810;63.824;20.288;2023-02-28T06:08:41;102114.13;;;3.90;100.00
13476;BME280;6810;63.824;20.288;2023-02-28T06:11:10;102115.91;;;3.88;100.00
13476;BME280;6810;63.824;20.288;2023-02-28T06:13:37;102122.91;;;3.87;100.00
13476;BME280;6810;63.824;20.288;2023-02-28T06:16:04;102133.47;;;3.87;100.00
13476;BME280;6810;63.824;20.288;2023-02-28T06:18:31;102135.25;;;3.87;100.00
13476;BME280;6810;63.824;20.288;2023-02-28T06:20:58;102093.16;;;3.72;100.00
13476;BME280;6810;63.824;20.288;2023-02-28T06:23:25;102122.06;;;3.84;100.00
13476;BME280;6810;63.824;20.288;2023-02-28T06:25:52;102134.41;;;3.82;100.00
13476;BME280;6810;63.824;20.288;2023-02-28T06:28:20;102137.03;;;3.82;100.00
13476;BME280;6810;63.824;20.288;2023-02-28T06:30:46;102138.78;;;3.81;100.00
13476;BME280;6810;63.824;20.288;2023-02-28T06:33:13;102123.97;;;3.70;100.00
13476;BME280;6810;63.824;20.288;2023-02-28T06:35:44;102147.63;;;3.79;100.00
13476;BME280;6810;63.824;20.288;2023-02-28T06:38:11;102158.19;;;3.77;100.00
13476;BME280;6810;63.824;20.288;2023-02-28T06:40:38;102152.91;;;3.77;100.00
13476;BME280;6810;63.824;20.288;2023-02-28T06:43:05;102103.81;;;3.58;100.00
13476;BME280;6810;63.824;20.288;2023-02-28T06:45:32;102145.00;;;3.77;100.00
13476;BME280;6810;63.824;20.288;2023-02-28T06:47:59;102148.50;;;3.75;100.00
13476;BME280;6810;63.824;20.288;2023-02-28T06:50:26;102167.84;;;3.77;100.00
13476;BME280;6810;63.824;20.288;2023-02-28T06:52:56;102179.28;;;3.76;100.00
13476;BME280;6810;63.824;20.288;2023-02-28T06:55:23;102182.78;;;3.76;100.00
13476;BME280;6810;63.824;20.288;2023-02-28T06:57:50;102174.00;;;3.76;100.00
13476;BME280;6810;63.824;20.288;2023-02-28T07:00:17;102179.28;;;3.74;100.00
13476;BME280;6810;63.824;20.288;2023-02-28T07:02:44;102186.28;;;3.77;100.00
13476;BME280;6810;63.824;20.288;2023-02-28T07:05:12;102194.22;;;3.75;100.00
13476;BME280;6810;63.824;20.288;2023-02-28T07:07:39;102206.50;;;3.75;100.00
13476;BME280;6810;63.824;20.288;2023-02-28T07:10:11;102190.72;;;3.70;100.00
13476;BME280;6810;63.824;20.288;2023-02-28T07:12:38;102159.22;;;3.50;100.00
13476;BME280;6810;63.824;20.288;2023-02-28T07:15:05;102199.50;;;3.74;100.00
13476;BME280;6810;63.824;20.288;2023-02-28T07:17:32;102199.56;;;3.65;100.00
13476;BME280;6810;63.824;20.288;2023-02-28T07:19:59;102206.53;;;3.73;100.00
13476;BME280;6810;63.824;20.288;2023-02-28T07:22:26;102211.81;;;3.69;100.00
13476;BME280;6810;63.824;20.288;2023-02-28T07:24:55;102216.22;;;3.73;100.00
13476;BME280;6810;63.824;20.288;2023-02-28T07:27:22;102211.81;;;3.72;100.00
13476;BME280;6810;63.824;20.288;2023-02-28T07:29:53;102225.00;;;3.72;100.00
13476;BME280;6810;63.824;20.288;2023-02-28T07:32:20;102189.91;;;3.67;100.00
13476;BME280;6810;63.824;20.288;2023-02-28T07:34:47;102217.09;;;3.72;100.00
13476;BME280;6810;63.824;20.288;2023-02-28T07:37:15;102215.34;;;3.69;100.00
13476;BME280;6810;63.824;20.288;2023-02-28T07:39:42;102223.25;;;3.72;100.00
13476;BME280;6810;63.824;20.288;2023-02-28T07:42:09;102203.94;;;3.67;100.00
13476;BME280;6810;63.824;20.288;2023-02-28T07:44:39;102223.25;;;3.72;100.00
13476;BME280;6810;63.824;20.288;2023-02-28T07:47:10;102225.88;;;3.72;100.00
13476;BME280;6810;63.824;20.288;2023-02-28T07:49:37;102222.34;;;3.72;100.00
13476;BME280;6810;63.824;20.288;2023-02-28T07:52:06;102226.75;;;3.76;100.00
13476;BME280;6810;63.824;20.288;2023-02-28T07:54:33;102236.38;;;3.77;100.00
13476;BME280;6810;63.824;20.288;2023-02-28T07:57:00;102224.97;;;3.76;100.00
13476;BME280;6810;63.824;20.288;2023-02-28T07:59:27;102232.00;;;3.77;100.00
13476;BME280;6810;63.824;20.288;2023-02-28T08:01:58;102224.09;;;3.77;100.00
13476;BME280;6810;63.824;20.288;2023-02-28T08:04:26;102213.56;;;3.73;100.00
13476;BME280;6810;63.824;20.288;2023-02-28T08:06:53;102230.22;;;3.79;100.00
13476;BME280;6810;63.824;20.288;2023-02-28T08:09:20;102232.00;;;3.76;100.00
13476;BME280;6810;63.824;20.288;2023-02-28T08:11:47;102237.28;;;3.79;100.00
13476;BME280;6810;63.824;20.288;2023-02-28T08:14:14;102229.34;;;3.79;100.00
13476;BME280;6810;63.824;20.288;2023-02-28T08:16:41;102234.63;;;3.79;100.00
13476;BME280;6810;63.824;20.288;2023-02-28T08:19:09;102238.13;;;3.79;100.00
13476;BME280;6810;63.824;20.288;2023-02-28T08:21:36;102234.63;;;3.80;100.00
13476;BME280;6810;63.824;20.288;2023-02-28T08:24:03;102239.00;;;3.81;100.00
13476;BME280;6810;63.824;20.288;2023-02-28T08:26:30;102227.59;;;3.75;100.00
13476;BME280;6810;63.824;20.288;2023-02-28T08:28:57;102234.63;;;3.82;100.00
13476;BME280;6810;63.824;20.288;2023-02-28T08:31:27;102231.97;;;3.82;100.00
13476;BME280;6810;63.824;20.288;2023-02-28T08:33:54;102231.06;;;3.83;100.00
13476;BME280;6810;63.824;20.288;2023-02-28T08:36:26;102240.75;;;3.85;100.00
13476;BME280;6810;63.824;20.288;2023-02-28T08:38:56;102172.38;;;3.53;100.00
13476;BME280;6810;63.824;20.288;2023-02-28T08:41:23;102241.59;;;3.89;100.00
13476;BME280;6810;63.824;20.288;2023-02-28T08:43:50;102217.06;;;3.73;100.00
13476;BME280;6810;63.824;20.288;2023-02-28T08:46:17;102242.50;;;3.85;100.00
13476;BME280;6810;63.824;20.288;2023-02-28T08:48:44;102250.38;;;3.91;100.00
13476;BME280;6810;63.824;20.288;2023-02-28T08:51:14;102245.09;;;3.92;100.00
13476;BME280;6810;63.824;20.288;2023-02-28T08:53:48;102260.00;;;3.95;100.00
13476;BME280;6810;63.824;20.288;2023-02-28T08:56:18;102248.59;;;3.96;100.00
13476;BME280;6810;63.824;20.288;2023-02-28T08:58:46;102251.25;;;3.93;100.00
13476;BME280;6810;63.824;20.288;2023-02-28T09:01:16;102267.88;;;3.99;100.00
13476;BME280;6810;63.824;20.288;2023-02-28T09:03:44;102266.13;;;4.01;100.00
13476;BME280;6810;63.824;20.288;2023-02-28T09:06:14;102257.31;;;4.02;100.00
13476;BME280;6810;63.824;20.288;2023-02-28T09:08:42;102242.44;;;3.94;100.00
13476;BME280;6810;63.824;20.288;2023-02-28T09:11:10;102256.44;;;4.05;100.00
13476;BME280;6810;63.824;20.288;2023-02-28T09:13:37;102246.78;;;4.01;100.00
13476;BME280;6810;63.824;20.288;2023-02-28T09:16:06;102259.06;;;4.05;100.00
13476;BME280;6810;63.824;20.288;2023-02-28T09:18:35;102254.66;;;4.05;100.00
13476;BME280;6810;63.824;20.288;2023-02-28T09:21:05;102252.00;;;4.05;100.00
13476;BME280;6810;63.824;20.288;2023-02-28T09:23:33;102249.38;;;4.05;100.00
13476;BME280;6810;63.824;20.288;2023-02-28T09:26:01;102256.44;;;4.06;100.00
13476;BME280;6810;63.824;20.288;2023-02-28T09:28:27;102252.91;;;4.04;100.00
13476;BME280;6810;63.824;20.288;2023-02-28T09:30:55;102250.31;;;4.00;100.00
13476;BME280;6810;63.824;20.288;2023-02-28T09:33:23;102250.25;;;4.07;100.00
13476;BME280;6810;63.824;20.288;2023-02-28T09:35:51;102258.16;;;4.10;100.00
13476;BME280;6810;63.824;20.288;2023-02-28T09:38:24;102255.50;;;4.10;100.00
13476;BME280;6810;63.824;20.288;2023-02-28T09:40:54;102248.47;;;4.11;100.00
13476;BME280;6810;63.824;20.288;2023-02-28T09:43:26;102247.56;;;4.12;100.00
13476;BME280;6810;63.824;20.288;2023-02-28T09:46:00;102228.31;;;4.01;100.00
13476;BME280;6810;63.824;20.288;2023-02-28T09:48:35;102210.84;;;3.86;100.00
13476;BME280;6810;63.824;20.288;2023-02-28T09:53:42;102258.09;;;4.16;100.00
13476;BME280;6810;63.824;20.288;2023-02-28T09:56:21;102247.53;;;4.18;100.00
13476;BME280;6810;63.824;20.288;2023-02-28T09:59:01;102251.94;;;4.20;100.00
13476;BME280;6810;63.824;20.288;2023-02-28T10:04:36;102265.09;;;4.22;100.00
13476;BME280;6810;63.824;20.288;2023-02-28T10:07:21;102252.78;;;4.22;100.00
13476;BME280;6810;63.824;20.288;2023-02-28T10:09:53;102243.09;;;4.23;100.00
13476;BME280;6810;63.824;20.288;2023-02-28T10:12:22;102225.63;;;4.05;100.00
13476;BME280;6810;63.824;20.288;2023-02-28T10:14:51;102267.72;;;4.26;100.00
13476;BME280;6810;63.824;20.288;2023-02-28T10:17:22;102276.47;;;4.28;100.00
13476;BME280;6810;63.824;20.288;2023-02-28T10:20:00;102275.59;;;4.31;100.00
13476;BME280;6810;63.824;20.288;2023-02-28T10:22:34;102279.97;;;4.33;100.00
13476;BME280;6810;63.824;20.288;2023-02-28T10:25:16;102259.81;;;4.25;100.00
13476;BME280;6810;63.824;20.288;2023-02-28T10:27:44;102286.94;;;4.40;100.00
13476;BME280;6810;63.824;20.288;2023-02-28T10:30:12;102270.22;;;4.41;100.00
13476;BME280;6810;63.824;20.288;2023-02-28T10:32:49;102274.56;;;4.47;100.00
13476;BME280;6810;63.824;20.288;2023-02-28T10:35:27;102271.91;;;4.50;100.00
13476;BME280;6810;63.824;20.288;2023-02-28T10:37:56;102285.09;;;4.51;100.00
13476;BME280;6810;63.824;20.288;2023-02-28T10:42:59;102263.94;;;4.53;100.00
13476;BME280;6810;63.824;20.288;2023-02-28T10:45:32;102263.91;;;4.56;100.00
13476;BME280;6810;63.824;20.288;2023-02-28T10:50:43;102270.97;;;4.58;100.00
13476;BME280;6810;63.824;20.288;2023-02-28T10:58:26;102261.22;;;4.63;100.00
13476;BME280;6810;63.824;20.288;2023-02-28T11:00:54;102266.50;;;4.60;100.00
13476;BME280;6810;63.824;20.288;2023-02-28T11:03:30;102265.59;;;4.66;100.00
13476;BME280;6810;63.824;20.288;2023-02-28T11:05:58;102266.44;;;4.68;100.00
13476;BME280;6810;63.824;20.288;2023-02-28T11:08:30;102283.19;;;4.68;100.00
13476;BME280;6810;63.824;20.288;2023-02-28T11:11:05;102274.38;;;4.68;100.00
13476;BME280;6810;63.824;20.288;2023-02-28T11:13:35;102256.00;;;4.54;100.00
13476;BME280;6810;63.824;20.288;2023-02-28T11:16:07;102284.88;;;4.74;100.00
13476;BME280;6810;63.824;20.288;2023-02-28T11:18:55;102268.16;;;4.75;100.00
13476;BME280;6810;63.824;20.288;2023-02-28T11:21:26;102269.91;;;4.76;100.00
13476;BME280;6810;63.824;20.288;2023-02-28T11:26:51;102256.75;;;4.70;100.00
13476;BME280;6810;63.824;20.288;2023-02-28T11:29:29;102271.63;;;4.77;100.00
13476;BME280;6810;63.824;20.288;2023-02-28T11:32:13;102277.78;;;4.79;100.00
13476;BME280;6810;63.824;20.288;2023-02-28T11:34:43;102283.94;;;4.81;100.00
13476;BME280;6810;63.824;20.288;2023-02-28T11:37:16;102273.38;;;4.81;100.00
13476;BME280;6810;63.824;20.288;2023-02-28T11:39:45;102274.25;;;4.80;100.00
13476;BME280;6810;63.824;20.288;2023-02-28T11:44:58;102282.19;;;4.81;100.00
13476;BME280;6810;63.824;20.288;2023-02-28T11:50:46;102282.16;;;4.80;100.00
13476;BME280;6810;63.824;20.288;2023-02-28T11:56:33;102263.69;;;4.81;100.00
13476;BME280;6810;63.824;20.288;2023-02-28T12:07:29;102249.56;;;4.84;100.00
13476;BME280;6810;63.824;20.288;2023-02-28T12:18:27;102256.56;;;4.88;100.00
13476;BME280;6810;63.824;20.288;2023-02-28T12:21:29;102265.38;;;4.88;100.00
13476;BME280;6810;63.824;20.288;2023-02-28T12:26:46;102258.31;;;4.92;100.00
13476;BME280;6810;63.824;20.288;2023-02-28T12:29:34;102218.78;;;4.81;100.00
13476;BME280;6810;63.824;20.288;2023-02-28T12:32:10;102241.53;;;4.94;100.00
13476;BME280;6810;63.824;20.288;2023-02-28T12:35:04;102245.03;;;4.96;100.00
13476;BME280;6810;63.824;20.288;2023-02-28T12:37:55;102221.25;;;4.98;100.00
13476;BME280;6810;63.824;20.288;2023-02-28T12:40:28;102212.59;;;4.84;100.00
13476;BME280;6810;63.824;20.288;2023-02-28T12:43:06;102230.03;;;4.97;100.00
13476;BME280;6810;63.824;20.288;2023-02-28T12:45:46;102239.72;;;4.99;100.00
13476;BME280;6810;63.824;20.288;2023-02-28T12:48:24;102242.38;;;4.98;100.00
13476;BME280;6810;63.824;20.288;2023-02-28T12:50:53;102224.75;;;4.97;100.00
13476;BME280;6810;63.824;20.288;2023-02-28T13:09:39;102220.41;;;4.94;100.00
13476;BME280;6810;63.824;20.288;2023-02-28T13:12:13;102232.69;;;4.95;100.00
13476;BME280;6810;63.824;20.288;2023-02-28T13:14:41;102231.84;;;4.96;100.00
13476;BME280;6810;63.824;20.288;2023-02-28T13:19:38;102227.41;;;4.97;100.00
13476;BME280;6810;63.824;20.288;2023-02-28T13:22:18;102221.25;;;4.98;100.00
13476;BME280;6810;63.824;20.288;2023-02-28T13:24:49;102217.69;;;4.99;100.00
13476;BME280;6810;63.824;20.288;2023-02-28T13:27:25;102226.53;;;4.98;100.00
13476;BME280;6810;63.824;20.288;2023-02-28T13:29:58;102215.97;;;4.98;100.00
13476;BME280;6810;63.824;20.288;2023-02-28T13:42:56;102165.31;;;4.60;100.00
13476;BME280;6810;63.824;20.288;2023-02-28T13:46:13;102215.16;;;4.90;100.00
13476;BME280;6810;63.824;20.288;2023-02-28T13:52:10;102222.19;;;4.89;100.00
13476;BME280;6810;63.824;20.288;2023-02-28T13:58:09;102220.47;;;4.88;100.00
13476;BME280;6810;63.824;20.288;2023-02-28T14:01:15;102217.81;;;4.88;100.00
13476;BME280;6810;63.824;20.288;2023-02-28T14:06:59;102226.66;;;4.86;100.00
13476;BME280;6810;63.824;20.288;2023-02-28T14:09:57;102223.13;;;4.85;100.00
13476;BME280;6810;63.824;20.288;2023-02-28T14:13:00;102226.69;;;4.84;100.00
13476;BME280;6810;63.824;20.288;2023-02-28T14:16:00;102223.16;;;4.84;100.00
13476;BME280;6810;63.824;20.288;2023-02-28T14:18:50;102223.16;;;4.84;100.00
13476;BME280;6810;63.824;20.288;2023-02-28T14:36:34;102203.97;;;4.65;100.00
13476;BME280;6810;63.824;20.288;2023-02-28T14:39:24;102230.22;;;4.82;100.00
13476;BME280;6810;63.824;20.288;2023-02-28T14:45:22;102238.16;;;4.80;100.00
13476;BME280;6810;63.824;20.288;2023-02-28T14:48:09;102251.34;;;4.82;100.00
13476;BME280;6810;63.824;20.288;2023-02-28T14:50:58;102241.69;;;4.81;100.00
13476;BME280;6810;63.824;20.288;2023-02-28T14:53:49;102244.34;;;4.78;100.00
13476;BME280;6810;63.824;20.288;2023-02-28T14:56:38;102243.44;;;4.79;100.00
13476;BME280;6810;63.824;20.288;2023-02-28T14:59:32;102251.38;;;4.79;100.00
13476;BME280;6810;63.824;20.288;2023-02-28T15:02:23;102255.78;;;4.77;100.00
13476;BME280;6810;63.824;20.288;2023-02-28T15:08:15;102235.56;;;4.74;100.00
13476;BME280;6810;63.824;20.288;2023-02-28T15:11:13;102240.88;;;4.73;100.00
13476;BME280;6810;63.824;20.288;2023-02-28T15:14:01;102238.31;;;4.64;100.00
13476;BME280;6810;63.824;20.288;2023-02-28T15:16:52;102248.81;;;4.73;100.00
13476;BME280;6810;63.824;20.288;2023-02-28T15:19:43;102247.06;;;4.72;100.00
13476;BME280;6810;63.824;20.288;2023-02-28T15:22:36;102247.06;;;4.72;100.00
13476;BME280;6810;63.824;20.288;2023-02-28T15:25:25;102198.00;;;4.47;100.00
13476;BME280;6810;63.824;20.288;2023-02-28T15:28:18;102249.69;;;4.72;100.00
13476;BME280;6810;63.824;20.288;2023-02-28T15:31:26;102200.75;;;4.38;100.00
13476;BME280;6810;63.824;20.288;2023-02-28T15:34:38;102264.69;;;4.70;100.00
13476;BME280;6810;63.824;20.288;2023-02-28T15:37:41;102267.31;;;4.70;100.00